Time;durP1;ratioP1;P1;durP2;ratioP2;P2;SDS_P1;SDS_P2;PMS_P1;PMS_P2;Temp;Humidity;BMP_temperature;BMP_pressure;BME280_temperature;BME280_humidity;BME280_pressure;Samples;Min_cycle;Max_cycle;Signal;HPM_P1;HPM_P2
2023/05/31 00:02:57;;;;;;;3.90;1.73;;;12.60;99.90;;;;;;10209742;29;20329;-84
2023/05/31 00:08:00;;;;;;;3.30;1.92;;;12.50;99.90;;;;;;10208972;29;20261;-85
2023/05/31 00:13:03;;;;;;;5.55;2.30;;;12.20;99.90;;;;;;10209098;29;20238;-85
2023/05/31 00:18:05;;;;;;;9.98;2.05;;;12.00;99.90;;;;;;10192019;29;20242;-84
2023/05/31 00:23:08;;;;;;;4.93;2.67;;;;;;;;;;10209386;29;20290;-84
2023/05/31 00:28:11;;;;;;;3.83;1.80;;;11.40;99.90;;;;;;10209396;29;20724;-84
2023/05/31 00:33:13;;;;;;;4.97;1.95;;;11.70;99.90;;;;;;10191239;29;20246;-84
2023/05/31 00:38:16;;;;;;;3.63;1.65;;;11.50;99.90;;;;;;10190670;29;20247;-84
2023/05/31 00:43:19;;;;;;;6.50;1.73;;;11.70;99.90;;;;;;10208449;29;20304;-85
2023/05/31 00:48:25;;;;;;;3.08;1.58;;;11.60;99.90;;;;;;10190714;29;20274;-85
2023/05/31 00:53:28;;;;;;;2.20;1.63;;;11.40;99.90;;;;;;10175380;29;20313;-84
2023/05/31 00:58:34;;;;;;;4.93;2.85;;;11.00;99.90;;;;;;10207719;29;20321;-84
2023/05/31 01:03:38;;;;;;;4.78;2.10;;;11.00;99.90;;;;;;10190549;29;20223;-84
2023/05/31 01:08:41;;;;;;;1.67;1.30;;;11.20;99.90;;;;;;10189758;29;20262;-84
2023/05/31 01:14:12;;;;;;;5.13;2.33;;;11.30;99.90;;;;;;10174190;29;20630;-85
2023/05/31 01:19:47;;;;;;;4.95;1.95;;;11.30;99.90;;;;;;10190268;29;20222;-84
2023/05/31 01:25:22;;;;;;;5.90;2.35;;;11.20;99.90;;;;;;10170238;29;20230;-84
2023/05/31 01:30:29;;;;;;;3.35;2.22;;;11.20;99.90;;;;;;10195644;28;20277;-84
2023/05/31 01:35:31;;;;;;;6.40;2.83;;;10.70;99.90;;;;;;10181397;29;20304;-84
2023/05/31 01:40:35;;;;;;;7.53;2.30;;;10.80;99.90;;;;;;10189573;29;20321;-84
2023/05/31 01:45:39;;;;;;;7.50;2.40;;;10.90;99.90;;;;;;10189985;29;20271;-84
2023/05/31 01:50:44;;;;;;;6.40;2.38;;;10.80;99.90;;;;;;10188762;29;20302;-84
2023/05/31 01:55:47;;;;;;;4.38;1.88;;;10.70;99.90;;;;;;10150311;29;20263;-84
2023/05/31 02:00:50;;;;;;;3.25;2.10;;;10.70;99.90;;;;;;10150715;29;20279;-85
2023/05/31 02:06:00;;;;;;;3.15;1.80;;;10.50;99.90;;;;;;10187960;29;20243;-84
2023/05/31 02:11:03;;;;;;;3.22;1.67;;;10.40;99.90;;;;;;10211792;29;20261;-84
2023/05/31 02:16:06;;;;;;;5.95;1.92;;;10.40;99.90;;;;;;10196407;29;20664;-84
2023/05/31 02:21:08;;;;;;;7.03;2.40;;;10.10;99.90;;;;;;10196740;29;20250;-85
2023/05/31 02:26:11;;;;;;;3.83;2.25;;;9.90;99.90;;;;;;10197049;29;20258;-84
2023/05/31 02:31:13;;;;;;;9.43;2.00;;;10.10;99.90;;;;;;10213050;29;20266;-84
2023/05/31 02:36:16;;;;;;;1.90;1.70;;;9.90;99.90;;;;;;10180867;29;20310;-85
2023/05/31 02:41:19;;;;;;;2.47;1.60;;;9.80;99.90;;;;;;10213489;29;20271;-85
2023/05/31 02:46:21;;;;;;;4.65;3.15;;;10.10;99.90;;;;;;10195619;29;20746;-84
2023/05/31 02:51:24;;;;;;;5.57;2.55;;;10.20;99.90;;;;;;10194824;29;20743;-85
2023/05/31 02:56:38;;;;;;;5.63;2.33;;;10.00;99.90;;;;;;10214420;29;20294;-85
2023/05/31 03:01:53;;;;;;;4.75;2.47;;;10.10;99.90;;;;;;10180932;29;20235;-84
2023/05/31 03:07:22;;;;;;;2.17;1.40;;;10.00;99.90;;;;;;10194813;29;20243;-84
2023/05/31 03:12:25;;;;;;;2.60;1.52;;;9.80;99.90;;;;;;10212299;29;20755;-84
2023/05/31 03:17:28;;;;;;;3.22;2.20;;;10.10;99.90;;;;;;10194355;29;20301;-84
2023/05/31 03:22:31;;;;;;;7.15;2.35;;;10.10;99.90;;;;;;10192841;29;20344;-84
2023/05/31 03:27:33;;;;;;;5.82;2.25;;;10.10;99.90;;;;;;10194989;29;20247;-84
2023/05/31 03:32:37;;;;;;;3.55;2.05;;;9.90;99.90;;;;;;10158471;29;20263;-84
2023/05/31 03:37:40;;;;;;;4.28;1.95;;;10.00;99.90;;;;;;10174826;29;20247;-85
2023/05/31 03:42:46;;;;;;;5.30;2.38;;;10.10;99.90;;;;;;10210085;29;20289;-84
2023/05/31 03:47:48;;;;;;;3.53;1.67;;;10.30;99.90;;;;;;10193085;29;20243;-85
2023/05/31 03:52:51;;;;;;;2.65;1.58;;;10.70;99.90;;;;;;10193378;29;20262;-84
2023/05/31 03:57:54;;;;;;;7.95;3.67;;;11.30;99.90;;;;;;10193855;29;20348;-84
2023/05/31 04:02:56;;;;;;;2.10;1.40;;;11.60;99.90;;;;;;10192882;29;20222;-84
2023/05/31 04:08:08;;;;;;;4.10;2.47;;;11.80;99.90;;;;;;10179135;29;20223;-84
2023/05/31 04:13:11;;;;;;;2.90;2.00;;;11.70;99.90;;;;;;10192659;29;20294;-85
2023/05/31 04:18:14;;;;;;;9.90;1.65;;;11.90;99.90;;;;;;10208956;29;20243;-84
2023/05/31 04:23:17;;;;;;;7.22;2.22;;;11.90;99.90;;;;;;10189677;29;20238;-85
2023/05/31 04:28:20;;;;;;;6.07;3.75;;;12.30;99.90;;;;;;10192383;29;20242;-84
2023/05/31 04:33:23;;;;;;;2.72;2.05;;;12.60;99.90;;;;;;10190611;29;20306;-84
2023/05/31 04:38:28;;;;;;;6.78;2.13;;;13.00;99.90;;;;;;10175764;29;20251;-84
2023/05/31 04:43:32;;;;;;;6.63;1.80;;;13.00;99.90;;;;;;10169889;29;20294;-84
2023/05/31 04:48:36;;;;;;;6.57;2.88;;;13.10;99.90;;;;;;10174015;29;20298;-84
2023/05/31 04:53:39;;;;;;;6.20;2.50;;;13.10;99.90;;;;;;10191299;29;20306;-84
2023/05/31 04:58:42;;;;;;;7.25;2.55;;;13.30;99.90;;;;;;10191178;29;20685;-84
2023/05/31 05:03:46;;;;;;;18.95;3.95;;;13.40;99.90;;;;;;10189645;29;20306;-84
2023/05/31 05:08:49;;;;;;;5.13;2.45;;;13.60;99.90;;;;;;10151090;29;20322;-84
2023/05/31 05:13:52;;;;;;;1.88;1.10;;;13.70;99.90;;;;;;10202848;29;20318;-84
2023/05/31 05:18:58;;;;;;;4.97;1.83;;;13.80;99.90;;;;;;10200398;29;20258;-84
2023/05/31 05:24:05;;;;;;;4.18;2.42;;;13.90;99.90;;;;;;10219400;29;20615;-84
2023/05/31 05:29:08;;;;;;;14.07;2.72;;;14.20;99.90;;;;;;10217103;29;20266;-83
2023/05/31 05:34:11;;;;;;;8.10;3.25;;;14.10;99.90;;;;;;10209166;29;20600;-83
2023/05/31 05:39:15;;;;;;;6.75;3.85;;;13.40;99.90;;;;;;10192914;29;20274;-83
2023/05/31 05:44:20;;;;;;;13.45;2.75;;;14.10;99.90;;;;;;10188639;29;20262;-83
2023/05/31 05:49:23;;;;;;;6.80;2.63;;;14.30;99.90;;;;;;10186973;29;20325;-82
2023/05/31 05:54:25;;;;;;;8.38;2.85;;;14.60;99.90;;;;;;10209923;29;20692;-84
2023/05/31 05:59:29;;;;;;;3.67;2.67;;;14.90;99.90;;;;;;10199758;29;20243;-83
2023/05/31 06:04:39;;;;;;;6.40;1.98;;;14.90;99.90;;;;;;10182656;29;20278;-83
2023/05/31 06:09:42;;;;;;;6.53;2.38;;;15.00;99.90;;;;;;10184239;29;20702;-83
2023/05/31 06:14:45;;;;;;;5.25;2.80;;;15.30;99.90;;;;;;10194817;29;20332;-83
2023/05/31 06:19:48;;;;;;;8.93;2.70;;;15.30;99.90;;;;;;10192382;29;20246;-82
2023/05/31 06:24:51;;;;;;;6.15;2.13;;;15.50;99.90;;;;;;10200246;29;20254;-82
2023/05/31 06:29:58;;;;;;;4.97;2.33;;;15.80;99.90;;;;;;10187330;29;20802;-82
2023/05/31 06:35:06;;;;;;;5.13;1.98;;;16.00;99.90;;;;;;10187720;29;20239;-83
2023/05/31 06:40:09;;;;;;;5.82;1.85;;;;;;;;;;10179208;29;20277;-83
2023/05/31 06:45:14;;;;;;;5.15;2.17;;;16.30;99.90;;;;;;10202026;29;20245;-83
2023/05/31 06:50:31;;;;;;;3.95;2.30;;;16.60;99.90;;;;;;10192696;29;20274;-83
2023/05/31 06:55:52;;;;;;;8.32;3.03;;;16.50;99.90;;;;;;10209958;29;20238;-83
2023/05/31 07:00:57;;;;;;;3.35;1.83;;;16.80;98.00;;;;;;10185636;29;20298;-83
2023/05/31 07:06:00;;;;;;;4.03;2.30;;;16.90;99.90;;;;;;10175104;29;20258;-82
2023/05/31 07:11:03;;;;;;;3.45;2.40;;;17.30;99.90;;;;;;10233612;29;20340;-82
2023/05/31 07:16:06;;;;;;;2.28;1.40;;;17.40;99.90;;;;;;10226232;29;20270;-82
2023/05/31 07:21:08;;;;;;;4.65;1.70;;;17.50;99.90;;;;;;10189421;29;20293;-82
2023/05/31 07:26:11;;;;;;;2.38;1.30;;;17.90;99.90;;;;;;10228604;29;20253;-81
2023/05/31 07:31:15;;;;;;;10.10;1.70;;;18.00;96.10;;;;;;10197629;29;20334;-82
2023/05/31 07:36:19;;;;;;;2.47;1.10;;;18.20;93.50;;;;;;10200094;29;20317;-81
2023/05/31 07:41:22;;;;;;;4.45;2.00;;;18.30;82.80;;;;;;10234731;29;20336;-82
2023/05/31 07:46:24;;;;;;;4.07;2.08;;;18.60;93.10;;;;;;10192897;29;20298;-81
2023/05/31 07:51:28;;;;;;;2.63;1.38;;;19.00;94.90;;;;;;10222378;29;20344;-81
2023/05/31 07:56:31;;;;;;;2.88;1.50;;;19.00;86.00;;;;;;10218507;29;20262;-83
2023/05/31 08:01:34;;;;;;;6.15;2.33;;;19.20;86.90;;;;;;10206409;29;20301;-82
2023/05/31 08:06:36;;;;;;;5.47;1.73;;;19.40;62.60;;;;;;10201057;29;20254;-81
2023/05/31 08:11:39;;;;;;;2.75;1.52;;;19.40;62.20;;;;;;10199051;29;20270;-81
2023/05/31 08:16:42;;;;;;;13.70;2.00;;;19.60;66.60;;;;;;10225962;29;20277;-82
2023/05/31 08:21:46;;;;;;;2.70;1.15;;;19.80;76.60;;;;;;10229386;29;20254;-81
2023/05/31 08:26:50;;;;;;;10.10;1.52;;;20.10;66.50;;;;;;10208575;29;20334;-81
2023/05/31 08:31:52;;;;;;;3.45;1.45;;;20.30;74.40;;;;;;10217457;29;20269;-81
2023/05/31 08:36:55;;;;;;;1.73;1.23;;;20.40;62.60;;;;;;10221858;29;20258;-81
2023/05/31 08:42:10;;;;;;;8.88;2.03;;;20.40;59.10;;;;;;10200602;29;20687;-81
2023/05/31 08:47:22;;;;;;;12.38;1.75;;;20.60;59.30;;;;;;10216530;29;20660;-81
2023/05/31 08:52:25;;;;;;;13.00;3.35;;;20.60;40.40;;;;;;10197578;29;20313;-82
2023/05/31 08:57:31;;;;;;;21.30;3.75;;;20.60;44.00;;;;;;10179844;29;20303;-84
2023/05/31 09:02:34;;;;;;;18.13;2.45;;;;;;;;;;10183041;29;20239;-83
2023/05/31 09:07:38;;;;;;;24.42;4.35;;;20.90;52.90;;;;;;10194671;29;20247;-84
2023/05/31 09:12:42;;;;;;;2.97;1.30;;;21.00;50.40;;;;;;10230764;29;20302;-84
2023/05/31 09:17:46;;;;;;;10.70;2.63;;;20.90;39.50;;;;;;10194859;29;20271;-83
2023/05/31 09:22:49;;;;;;;5.97;1.50;;;21.00;38.90;;;;;;10194584;29;20219;-82
2023/05/31 09:27:51;;;;;;;11.10;3.45;;;20.80;27.60;;;;;;10175930;29;20247;-81
2023/05/31 09:32:56;;;;;;;8.02;2.92;;;;;;;;;;10220806;29;20262;-80
2023/05/31 09:38:06;;;;;;;8.88;1.80;;;21.30;53.30;;;;;;10195867;29;20286;-80
2023/05/31 09:43:09;;;;;;;3.95;2.05;;;21.30;40.50;;;;;;10173267;29;20215;-79
2023/05/31 09:48:12;;;;;;;2.30;1.38;;;21.30;27.40;;;;;;10157550;29;20290;-80
2023/05/31 09:53:17;;;;;;;10.38;2.20;;;21.20;26.30;;;;;;10160531;29;20728;-80
2023/05/31 09:58:32;;;;;;;6.05;1.75;;;21.40;42.40;;;;;;10163239;29;20232;-80
2023/05/31 10:03:35;;;;;;;3.97;1.50;;;21.50;46.50;;;;;;10152371;29;20896;-80
2023/05/31 10:08:38;;;;;;;4.10;1.75;;;21.60;44.90;;;;;;10192882;29;20214;-80
2023/05/31 10:13:43;;;;;;;3.58;1.95;;;21.60;29.10;;;;;;10189162;29;20704;-81
2023/05/31 10:18:48;;;;;;;2.67;1.45;;;21.70;22.70;;;;;;10167107;29;20267;-80
2023/05/31 10:24:03;;;;;;;5.40;1.77;;;21.60;22.50;;;;;;10187594;29;20255;-80
2023/05/31 10:29:13;;;;;;;7.00;1.50;;;21.50;29.00;;;;;;10185591;29;20238;-80
2023/05/31 10:34:18;;;;;;;3.35;1.23;;;21.60;33.30;;;;;;10172223;29;20235;-80
2023/05/31 10:39:33;;;;;;;11.02;2.40;;;21.70;23.60;;;;;;10205053;29;20306;-84
2023/05/31 10:44:58;;;;;;;6.75;2.35;;;21.60;26.70;;;;;;10225644;29;20282;-81
2023/05/31 10:50:03;;;;;;;5.20;2.20;;;21.80;29.50;;;;;;10219891;29;20266;-81
2023/05/31 10:55:16;;;;;;;5.80;1.90;;;;;;;;;;10223324;29;20207;-81
2023/05/31 11:00:23;;;;;;;8.00;2.15;;;22.10;38.50;;;;;;10195045;29;20618;-82
2023/05/31 11:05:27;;;;;;;4.40;1.50;;;22.20;27.90;;;;;;10202217;29;20219;-80
2023/05/31 11:10:34;;;;;;;3.95;1.60;;;22.30;47.20;;;;;;10202032;29;20668;-82
2023/05/31 11:15:46;;;;;;;2.95;1.67;;;22.40;49.10;;;;;;10182051;29;20251;-82
2023/05/31 11:20:52;;;;;;;4.70;1.80;;;22.30;23.90;;;;;;10195387;29;20603;-82
2023/05/31 11:26:07;;;;;;;5.20;2.30;;;22.50;27.00;;;;;;10171571;29;20215;-81
2023/05/31 11:31:14;;;;;;;4.10;1.60;;;22.50;28.60;;;;;;10208723;29;20685;-80
2023/05/31 11:36:17;;;;;;;10.80;2.55;;;22.70;42.60;;;;;;10226558;29;20214;-80
2023/05/31 11:41:19;;;;;;;2.33;1.33;;;22.70;25.30;;;;;;10208032;29;20270;-82
2023/05/31 11:46:22;;;;;;;3.08;1.42;;;22.70;41.30;;;;;;10184968;29;20274;-81
2023/05/31 11:51:25;;;;;;;2.47;1.23;;;22.80;48.00;;;;;;10218947;29;20263;-80
2023/05/31 11:56:36;;;;;;;3.10;1.38;;;22.80;53.70;;;;;;10207854;29;20629;-81
2023/05/31 12:01:39;;;;;;;3.08;1.95;;;22.80;39.70;;;;;;10202894;29;20249;-81
2023/05/31 12:06:43;;;;;;;3.17;1.70;;;22.80;28.10;;;;;;10205916;29;20219;-81
2023/05/31 12:11:45;;;;;;;3.28;1.65;;;22.80;26.90;;;;;;10204168;29;20700;-81
2023/05/31 12:16:49;;;;;;;5.00;1.55;;;22.90;15.40;;;;;;10198375;29;20210;-82
2023/05/31 12:21:51;;;;;;;2.80;1.08;;;23.00;35.80;;;;;;10216111;29;20214;-84
2023/05/31 12:26:54;;;;;;;2.65;1.45;;;23.10;29.80;;;;;;10243605;29;20281;-83
2023/05/31 12:32:04;;;;;;;3.17;1.33;;;23.20;24.30;;;;;;10223619;29;20246;-84
2023/05/31 12:37:09;;;;;;;7.03;1.10;;;23.30;19.60;;;;;;10241085;29;20215;-83
2023/05/31 12:42:14;;;;;;;5.15;1.42;;;23.30;12.60;;;;;;10213792;29;20235;-82
2023/05/31 12:47:17;;;;;;;4.60;1.38;;;23.30;16.80;;;;;;10242492;29;20238;-82
2023/05/31 12:52:20;;;;;;;3.80;1.30;;;23.30;26.30;;;;;;10223516;28;20231;-82
2023/05/31 12:57:22;;;;;;;2.88;1.33;;;23.40;25.90;;;;;;10231131;29;20250;-82
2023/05/31 13:02:25;;;;;;;1.10;0.80;;;23.40;32.20;;;;;;10257577;29;20242;-81
2023/05/31 13:07:27;;;;;;;1.35;0.95;;;23.10;20.00;;;;;;10235401;29;20328;-82
2023/05/31 13:12:30;;;;;;;3.10;1.05;;;23.20;30.20;;;;;;10228756;29;20267;-81
2023/05/31 13:17:33;;;;;;;2.53;1.00;;;23.10;8.60;;;;;;10258884;29;20234;-82
2023/05/31 13:22:36;;;;;;;1.98;0.80;;;23.00;13.80;;;;;;10230802;29;20222;-80
2023/05/31 13:27:39;;;;;;;3.30;1.42;;;23.10;14.70;;;;;;10221685;29;20235;-80
2023/05/31 13:32:43;;;;;;;3.35;2.15;;;23.20;8.30;;;;;;10225183;29;20230;-81
2023/05/31 13:37:45;;;;;;;1.70;1.00;;;23.10;8.60;;;;;;10227228;29;20206;-80
2023/05/31 13:42:48;;;;;;;6.85;1.95;;;23.20;13.20;;;;;;10217123;29;20238;-80
2023/05/31 13:47:52;;;;;;;3.40;1.15;;;23.10;5.70;;;;;;10218696;29;20583;-81
2023/05/31 13:52:55;;;;;;;3.60;1.92;;;23.20;11.10;;;;;;10235503;29;20227;-80
2023/05/31 13:57:58;;;;;;;1.88;1.10;;;23.20;9.50;;;;;;10235977;29;20202;-80
2023/05/31 14:03:00;;;;;;;8.25;2.03;;;23.10;4.70;;;;;;10186581;29;20215;-80
2023/05/31 14:08:03;;;;;;;6.07;1.77;;;23.30;4.10;;;;;;10253729;29;20242;-80
2023/05/31 14:13:06;;;;;;;6.85;1.60;;;23.40;4.70;;;;;;10253587;29;20226;-81
2023/05/31 14:18:08;;;;;;;2.65;1.13;;;23.40;4.00;;;;;;10243950;29;20211;-81
2023/05/31 14:23:11;;;;;;;5.40;1.10;;;23.50;4.80;;;;;;10243341;29;20243;-80
2023/05/31 14:28:14;;;;;;;1.95;1.27;;;23.60;3.80;;;;;;10235454;29;20219;-81
2023/05/31 14:33:18;;;;;;;2.78;1.30;;;23.50;2.10;;;;;;10206934;29;20286;-81
2023/05/31 14:38:21;;;;;;;3.08;1.58;;;23.70;5.70;;;;;;10233763;29;20318;-82
2023/05/31 14:43:36;;;;;;;4.30;0.77;;;23.70;3.20;;;;;;10238564;29;20190;-86
2023/05/31 14:48:41;;;;;;;3.22;1.23;;;23.70;6.10;;;;;;10265837;29;20195;-85
2023/05/31 14:53:43;;;;;;;2.92;1.15;;;23.70;16.00;;;;;;10265030;29;20224;-84
2023/05/31 14:58:50;;;;;;;2.38;1.40;;;23.60;13.00;;;;;;10230893;29;20215;-83
2023/05/31 15:03:54;;;;;;;3.80;1.35;;;23.50;8.40;;;;;;10249103;29;20219;-82
2023/05/31 15:08:57;;;;;;;4.57;1.10;;;23.50;24.10;;;;;;10215690;29;20219;-80
2023/05/31 15:14:00;;;;;;;7.53;1.65;;;23.50;26.00;;;;;;10225742;28;21805;-80
2023/05/31 15:19:02;;;;;;;2.53;1.15;;;23.30;28.10;;;;;;10218053;29;20215;-79
2023/05/31 15:24:05;;;;;;;4.75;1.15;;;23.30;29.80;;;;;;10230749;29;20215;-79
2023/05/31 15:29:17;;;;;;;3.10;1.85;;;23.30;27.90;;;;;;10199974;29;20285;-79
2023/05/31 15:34:19;;;;;;;2.00;1.20;;;23.30;25.10;;;;;;10205176;29;20243;-81
2023/05/31 15:39:22;;;;;;;2.17;1.42;;;23.20;29.80;;;;;;10238731;29;20266;-80
2023/05/31 15:44:25;;;;;;;3.08;1.35;;;23.10;28.20;;;;;;10232894;29;20588;-80
2023/05/31 15:49:27;;;;;;;2.08;1.55;;;23.10;33.20;;;;;;10233194;29;20940;-81
2023/05/31 15:54:30;;;;;;;2.05;1.30;;;23.00;26.90;;;;;;10228658;29;20231;-80
2023/05/31 15:59:34;;;;;;;4.93;1.35;;;23.10;30.70;;;;;;10230980;29;20578;-81
2023/05/31 16:04:37;;;;;;;8.70;1.20;;;23.10;30.60;;;;;;10214822;29;20592;-80
2023/05/31 16:09:39;;;;;;;2.35;1.20;;;23.00;29.10;;;;;;10227355;29;20212;-79
2023/05/31 16:14:42;;;;;;;1.98;1.20;;;23.00;31.40;;;;;;10208828;29;20286;-79
2023/05/31 16:19:44;;;;;;;4.03;2.08;;;23.10;31.70;;;;;;10189947;29;20215;-79
2023/05/31 16:24:48;;;;;;;6.18;1.75;;;23.10;31.10;;;;;;10231680;29;20647;-81
2023/05/31 16:29:50;;;;;;;5.25;1.23;;;23.20;20.30;;;;;;10243778;29;20195;-84
2023/05/31 16:34:53;;;;;;;5.75;1.02;;;23.30;14.60;;;;;;10267608;29;20260;-86
2023/05/31 16:39:56;;;;;;;2.70;1.05;;;23.40;28.20;;;;;;10278276;28;20611;-84
2023/05/31 16:44:58;;;;;;;2.20;1.48;;;23.30;30.60;;;;;;10261924;29;20223;-85
2023/05/31 16:50:01;;;;;;;2.60;1.30;;;23.30;31.90;;;;;;10262215;28;20215;-84
2023/05/31 16:55:04;;;;;;;1.30;1.00;;;23.30;21.60;;;;;;10261234;29;20230;-85
2023/05/31 17:00:07;;;;;;;3.97;1.25;;;23.30;26.10;;;;;;10230569;29;20207;-86
2023/05/31 17:05:10;;;;;;;1.77;1.20;;;23.30;12.70;;;;;;10213527;29;20210;-81
2023/05/31 17:10:13;;;;;;;4.72;1.50;;;23.20;8.50;;;;;;10213159;29;20203;-81
2023/05/31 17:15:15;;;;;;;5.28;1.73;;;23.30;12.30;;;;;;10203121;29;20267;-81
2023/05/31 17:20:18;;;;;;;4.28;1.73;;;23.20;8.60;;;;;;10189858;29;20680;-82
2023/05/31 17:25:21;;;;;;;7.88;1.88;;;23.10;9.80;;;;;;10207718;29;20310;-81
2023/05/31 17:30:27;;;;;;;3.05;1.75;;;23.00;9.90;;;;;;10207400;29;20847;-81
2023/05/31 17:35:29;;;;;;;5.05;1.80;;;23.00;12.60;;;;;;10207227;29;20259;-82
2023/05/31 17:40:32;;;;;;;3.15;2.00;;;22.90;13.30;;;;;;10206296;29;20723;-82
2023/05/31 17:45:35;;;;;;;3.03;1.67;;;22.80;14.30;;;;;;10207473;29;20234;-82
2023/05/31 17:50:38;;;;;;;5.30;1.48;;;22.60;14.60;;;;;;10142811;29;20247;-82
2023/05/31 17:55:40;;;;;;;3.30;1.38;;;22.50;16.50;;;;;;10168392;29;20295;-81
2023/05/31 18:00:43;;;;;;;2.25;1.48;;;22.40;15.70;;;;;;10168077;29;20239;-81
2023/05/31 18:05:46;;;;;;;8.65;1.92;;;22.20;17.30;;;;;;10151270;29;20275;-81
2023/05/31 18:10:48;;;;;;;12.85;2.38;;;22.00;17.10;;;;;;10166093;29;20317;-81
2023/05/31 18:15:51;;;;;;;2.60;1.65;;;21.70;15.70;;;;;;10207515;29;20262;-81
2023/05/31 18:20:54;;;;;;;12.75;2.83;;;21.40;17.10;;;;;;10206629;29;20254;-81
2023/05/31 18:25:56;;;;;;;5.03;1.73;;;21.00;18.80;;;;;;10207350;29;20251;-81
2023/05/31 18:30:59;;;;;;;8.02;2.63;;;20.60;19.50;;;;;;10207040;29;20684;-83
2023/05/31 18:36:02;;;;;;;3.38;1.90;;;20.20;21.50;;;;;;10206752;29;20270;-84
2023/05/31 18:41:05;;;;;;;6.35;1.70;;;19.80;22.40;;;;;;10206082;29;20262;-82
2023/05/31 18:46:08;;;;;;;4.60;2.20;;;19.20;24.20;;;;;;10189789;29;20263;-81
2023/05/31 18:51:10;;;;;;;7.00;2.67;;;19.00;26.00;;;;;;10209383;29;20246;-81
2023/05/31 18:56:13;;;;;;;4.00;1.33;;;18.90;26.70;;;;;;10213792;29;20290;-82
2023/05/31 19:01:16;;;;;;;62.28;5.55;;;18.80;30.50;;;;;;10213719;29;20622;-81
2023/05/31 19:06:19;;;;;;;14.20;2.20;;;18.30;28.90;;;;;;10213822;29;20274;-81
2023/05/31 19:11:21;;;;;;;3.88;1.42;;;18.20;30.90;;;;;;10196757;29;20246;-81
2023/05/31 19:16:24;;;;;;;4.20;1.60;;;17.90;32.50;;;;;;10196757;29;20321;-83
2023/05/31 19:21:27;;;;;;;5.70;2.15;;;17.40;37.30;;;;;;10212880;29;20295;-80
2023/05/31 19:26:29;;;;;;;9.25;1.70;;;17.30;37.80;;;;;;10190657;29;20211;-81
2023/05/31 19:31:32;;;;;;;2.80;1.40;;;17.20;40.80;;;;;;10214895;29;20215;-82
2023/05/31 19:36:35;;;;;;;4.00;1.60;;;17.40;46.10;;;;;;10213890;29;20671;-84
2023/05/31 19:41:39;;;;;;;4.88;1.73;;;17.50;47.80;;;;;;10196757;29;20226;-82
2023/05/31 19:46:42;;;;;;;7.68;2.25;;;17.30;48.30;;;;;;10196286;29;20279;-82
2023/05/31 19:51:45;;;;;;;5.15;2.05;;;17.20;52.00;;;;;;10197158;29;20246;-81
2023/05/31 19:56:47;;;;;;;2.65;1.80;;;17.20;55.80;;;;;;10214257;29;20232;-81
2023/05/31 20:01:50;;;;;;;8.55;1.88;;;17.20;59.90;;;;;;10197465;29;20211;-80
2023/05/31 20:06:52;;;;;;;4.40;1.70;;;17.10;60.90;;;;;;10213782;29;20560;-82
2023/05/31 20:11:55;;;;;;;3.58;2.13;;;17.00;64.30;;;;;;10214010;29;20740;-82
2023/05/31 20:16:59;;;;;;;3.88;2.03;;;17.00;70.80;;;;;;10212799;29;20607;-83
2023/05/31 20:22:02;;;;;;;2.20;2.00;;;17.00;70.30;;;;;;10212364;29;20215;-81
2023/05/31 20:27:06;;;;;;;4.03;2.33;;;16.90;70.50;;;;;;10212446;29;20278;-81
2023/05/31 20:32:08;;;;;;;4.80;2.33;;;16.80;74.80;;;;;;10207519;29;20271;-81
2023/05/31 20:37:11;;;;;;;10.35;4.15;;;16.50;68.90;;;;;;10208574;29;20219;-84
2023/05/31 20:42:14;;;;;;;4.45;1.95;;;16.40;71.00;;;;;;10211604;29;20649;-83
2023/05/31 20:47:17;;;;;;;8.40;3.83;;;16.40;84.60;;;;;;10194741;29;20577;-83
2023/05/31 20:52:19;;;;;;;5.55;2.15;;;16.20;84.20;;;;;;10212016;29;20247;-83
2023/05/31 20:57:22;;;;;;;11.35;2.90;;;16.00;92.30;;;;;;10210973;29;20353;-82
2023/05/31 21:02:25;;;;;;;12.05;3.40;;;16.00;92.90;;;;;;10208802;29;20250;-83
2023/05/31 21:07:27;;;;;;;10.95;3.88;;;15.80;92.70;;;;;;10204610;29;20207;-83
2023/05/31 21:12:30;;;;;;;14.00;3.67;;;15.40;96.60;;;;;;10191291;29;20227;-83
2023/05/31 21:17:33;;;;;;;11.25;3.97;;;15.10;96.20;;;;;;10190588;29;20239;-81
2023/05/31 21:22:36;;;;;;;26.10;4.50;;;;;;;;;;10208355;29;20276;-84
2023/05/31 21:27:38;;;;;;;13.07;3.05;;;14.30;96.00;;;;;;10193073;29;20203;-86
2023/05/31 21:32:41;;;;;;;8.27;2.53;;;13.50;99.40;;;;;;10188151;29;20822;-85
2023/05/31 21:37:43;;;;;;;14.07;3.63;;;13.80;99.90;;;;;;10190091;29;20715;-85
2023/05/31 21:42:46;;;;;;;4.28;2.90;;;13.90;99.90;;;;;;10175509;29;20294;-86
2023/05/31 21:47:49;;;;;;;15.52;3.70;;;14.00;99.90;;;;;;10197469;29;20270;-86
2023/05/31 21:52:52;;;;;;;16.55;3.78;;;13.90;99.90;;;;;;10184895;29;20226;-86
2023/05/31 21:57:54;;;;;;;10.02;3.17;;;13.80;99.90;;;;;;10195460;29;20212;-86
2023/05/31 22:02:57;;;;;;;10.75;3.75;;;13.60;99.90;;;;;;10208312;29;20211;-86
2023/05/31 22:07:59;;;;;;;11.98;3.47;;;13.50;99.90;;;;;;10208535;29;20239;-86
2023/05/31 22:13:02;;;;;;;12.65;3.85;;;13.80;99.90;;;;;;10162645;29;20715;-85
2023/05/31 22:18:13;;;;;;;9.60;4.05;;;13.40;99.90;;;;;;10196214;29;20602;-85
2023/05/31 22:23:15;;;;;;;6.82;3.58;;;13.50;99.90;;;;;;10207879;29;20314;-86
2023/05/31 22:28:19;;;;;;;6.18;3.15;;;;;;;;;;10215759;29;20267;-85
2023/05/31 22:33:22;;;;;;;11.18;3.65;;;13.00;99.90;;;;;;10198594;29;20656;-86
2023/05/31 22:38:24;;;;;;;6.30;3.03;;;13.00;99.90;;;;;;10216066;29;20258;-86
2023/05/31 22:43:27;;;;;;;8.57;3.60;;;12.90;99.90;;;;;;10215273;29;20215;-86
2023/05/31 22:48:29;;;;;;;6.60;3.10;;;12.90;99.90;;;;;;10213482;29;20305;-86
2023/05/31 22:53:33;;;;;;;7.68;2.90;;;12.70;99.90;;;;;;10215457;29;20670;-86
2023/05/31 22:58:35;;;;;;;10.52;3.22;;;12.80;99.90;;;;;;10214730;29;20615;-86
2023/05/31 23:03:38;;;;;;;9.30;3.80;;;12.60;99.90;;;;;;10213804;29;20203;-85
2023/05/31 23:08:43;;;;;;;16.27;4.18;;;12.80;99.90;;;;;;10214824;29;20278;-86
2023/05/31 23:13:46;;;;;;;6.72;4.00;;;12.60;99.90;;;;;;10213726;29;20807;-85
2023/05/31 23:18:52;;;;;;;8.02;3.90;;;12.40;99.90;;;;;;10213390;29;20246;-85
2023/05/31 23:23:55;;;;;;;11.07;3.65;;;12.30;99.90;;;;;;10196332;29;20206;-86
2023/05/31 23:28:58;;;;;;;13.50;4.95;;;12.30;99.90;;;;;;10212720;29;20277;-86
2023/05/31 23:34:00;;;;;;;10.52;3.78;;;12.50;99.90;;;;;;10213931;29;20258;-86
2023/05/31 23:39:03;;;;;;;7.85;3.88;;;12.10;99.90;;;;;;10213017;29;20255;-86
2023/05/31 23:44:05;;;;;;;7.75;3.38;;;12.10;99.90;;;;;;10214248;29;20215;-86
2023/05/31 23:49:09;;;;;;;25.90;5.68;;;11.90;99.90;;;;;;10196032;29;20669;-85
2023/05/31 23:54:11;;;;;;;11.10;3.97;;;11.60;99.90;;;;;;10212735;29;20253;-86
2023/05/31 23:59:14;;;;;;;13.15;4.30;;;11.60;99.90;;;;;;10212443;29;20259;-86
